Time;durP1;ratioP1;P1;durP2;ratioP2;P2;SDS_P1;SDS_P2;PMS_P1;PMS_P2;Temp;Humidity;BMP_temperature;BMP_pressure;BME280_temperature;BME280_humidity;BME280_pressure;Samples;Min_cycle;Max_cycle;Signal;HPM_P1;HPM_P2
2023/01/04 00:04:45;;;;;;;1.42;1.05;;;;;;;-2.58;83.50;100911.03;10527424;28;20539;-75
2023/01/04 00:09:48;;;;;;;1.27;1.13;;;;;;;-2.50;83.27;100905.53;10539906;28;20044;-78
2023/01/04 00:14:50;;;;;;;2.08;1.17;;;;;;;-2.49;82.55;100908.03;10521831;28;20045;-77
2023/01/04 00:19:52;;;;;;;2.33;1.40;;;;;;;-2.50;82.59;100903.69;10502901;28;20044;-77
2023/01/04 00:24:54;;;;;;;1.17;1.08;;;;;;;-2.51;82.69;100895.81;10497857;28;20056;-77
2023/01/04 00:29:57;;;;;;;1.95;1.25;;;;;;;-2.63;82.79;100905.38;10522091;28;20518;-75
2023/01/04 00:34:59;;;;;;;1.60;1.30;;;;;;;-2.55;82.84;100926.78;10527634;28;20040;-76
2023/01/04 00:40:01;;;;;;;1.80;1.42;;;;;;;-2.62;83.08;100931.22;10499667;28;20540;-76
2023/01/04 00:45:03;;;;;;;2.78;1.98;;;;;;;-2.43;83.17;100927.94;10486586;28;20041;-77
2023/01/04 00:50:06;;;;;;;2.33;1.40;;;;;;;-2.34;82.85;100936.72;10496594;28;20037;-77
2023/01/04 00:55:09;;;;;;;1.48;1.35;;;;;;;-2.33;82.97;100928.47;10486518;28;20037;-77
2023/01/04 01:00:12;;;;;;;1.98;1.30;;;;;;;-2.34;82.50;100940.25;10510701;28;20059;-75
2023/01/04 01:05:14;;;;;;;2.70;1.73;;;;;;;-2.29;82.76;100945.03;10521635;28;20040;-76
2023/01/04 01:10:16;;;;;;;1.58;1.40;;;;;;;-2.37;82.79;100948.69;10505882;28;20040;-75
2023/01/04 01:15:18;;;;;;;1.55;1.40;;;;;;;-2.42;82.78;100950.28;10509227;28;20055;-75
2023/01/04 01:20:21;;;;;;;1.48;1.38;;;;;;;-2.44;83.09;100958.50;10507745;28;20048;-75
2023/01/04 01:25:27;;;;;;;2.33;1.55;;;;;;;-2.47;83.66;100958.91;10526681;28;20552;-77
2023/01/04 01:30:30;;;;;;;3.17;1.60;;;;;;;-2.40;83.25;100949.06;10495606;28;20045;-76
2023/01/04 01:35:33;;;;;;;1.38;1.27;;;;;;;-2.52;83.09;100964.84;10493558;28;20049;-76
2023/01/04 01:40:42;;;;;;;1.83;1.63;;;;;;;-2.63;83.10;100948.34;10485234;28;20377;-77
2023/01/04 01:45:47;;;;;;;1.83;1.50;;;;;;;-2.59;83.71;100955.03;10493272;28;20045;-77
2023/01/04 01:50:58;;;;;;;1.92;1.40;;;;;;;-2.31;82.71;100955.97;10492052;28;20029;-77
2023/01/04 01:56:00;;;;;;;1.75;1.25;;;;;;;-2.40;82.89;100946.38;10512014;28;20044;-74
2023/01/04 02:01:07;;;;;;;1.98;1.48;;;;;;;-2.40;82.80;100942.88;10488816;28;20068;-76
2023/01/04 02:06:18;;;;;;;2.03;1.40;;;;;;;-2.40;82.79;100945.56;10521628;28;20045;-77
2023/01/04 02:11:21;;;;;;;1.40;1.27;;;;;;;-2.38;83.33;100952.41;10530980;28;20041;-76
2023/01/04 02:16:45;;;;;;;2.67;1.65;;;;;;;-2.34;83.26;100942.94;10503459;28;20052;-76
2023/01/04 02:22:34;;;;;;;2.08;1.40;;;;;;;-2.36;83.43;100928.84;10492194;28;20033;-76
2023/01/04 02:28:03;;;;;;;3.75;1.63;;;;;;;-2.27;83.72;100922.31;10504609;28;20045;-75
2023/01/04 02:33:27;;;;;;;2.60;1.70;;;;;;;-2.07;83.37;100919.03;10490194;28;20040;-74
2023/01/04 02:38:54;;;;;;;4.30;2.50;;;;;;;-2.25;83.63;100914.94;10503160;28;20519;-76
2023/01/04 02:54:55;;;;;;;3.28;1.95;;;;;;;-2.35;83.72;100930.53;10510978;28;20046;-75
2023/01/04 03:00:24;;;;;;;3.30;1.80;;;;;;;-2.57;84.48;100918.06;10527718;28;20507;-77
2023/01/04 03:16:41;;;;;;;2.38;1.50;;;;;;;-2.52;84.22;100923.72;10508149;28;20040;-76
2023/01/04 03:21:44;;;;;;;3.53;1.98;;;;;;;-2.76;84.50;100916.81;10455988;28;20511;-78
2023/01/04 03:37:46;;;;;;;3.17;1.88;;;;;;;-2.74;85.23;100920.97;10512028;28;20048;-77
2023/01/04 03:48:33;;;;;;;3.10;2.08;;;;;;;-2.72;84.61;100922.63;10503269;28;20055;-77
2023/01/04 03:54:02;;;;;;;5.55;2.25;;;;;;;-2.76;85.13;100916.81;10528842;28;20044;-76
2023/01/04 03:59:05;;;;;;;4.43;2.13;;;;;;;-2.71;84.83;100910.88;10500303;28;20496;-74
2023/01/04 04:09:28;;;;;;;4.50;2.17;;;;;;;-2.80;84.85;100928.94;10527759;28;20043;-77
2023/01/04 04:14:30;;;;;;;2.78;1.92;;;;;;;-2.78;85.27;100917.00;10539288;28;20407;-77
2023/01/04 04:19:32;;;;;;;3.38;2.15;;;;;;;-2.78;84.85;100900.03;10515732;28;20047;-78
2023/01/04 04:24:35;;;;;;;3.35;2.00;;;;;;;-2.89;85.10;100900.53;10517445;28;20052;-76
2023/01/04 04:29:38;;;;;;;3.67;2.53;;;;;;;-2.95;85.61;100894.06;10488297;28;20056;-77
2023/01/04 04:34:40;;;;;;;4.43;2.08;;;;;;;-2.89;85.63;100892.47;10513506;28;20048;-76
2023/01/04 04:39:42;;;;;;;5.25;2.50;;;;;;;-2.80;85.64;100894.84;10498271;28;20079;-77
2023/01/04 04:44:44;;;;;;;4.28;2.40;;;;;;;-2.82;86.05;100896.88;10495580;28;20046;-78
2023/01/04 04:49:47;;;;;;;4.53;2.50;;;;;;;-2.80;86.23;100894.00;10492907;28;20052;-77
2023/01/04 04:54:49;;;;;;;4.53;2.85;;;;;;;-2.98;86.79;100885.53;10495772;28;20040;-78
2023/01/04 04:59:51;;;;;;;4.10;2.60;;;;;;;-2.91;87.39;100889.97;10496844;28;20056;-76
2023/01/04 05:04:53;;;;;;;6.25;2.63;;;;;;;-2.90;86.98;100880.06;10492400;28;20033;-77
2023/01/04 05:09:56;;;;;;;7.95;3.45;;;;;;;-2.96;87.19;100870.88;10496041;28;20048;-77
2023/01/04 05:14:58;;;;;;;4.45;2.78;;;;;;;-3.19;87.24;100870.19;10494722;28;20406;-76
2023/01/04 05:20:01;;;;;;;4.78;2.63;;;;;;;-3.20;87.78;100866.66;10495286;28;20706;-78
2023/01/04 05:25:04;;;;;;;4.85;2.55;;;;;;;-3.39;88.17;100862.69;10492353;28;20075;-77
2023/01/04 05:35:31;;;;;;;6.57;2.80;;;;;;;-3.22;88.67;100854.44;10496054;28;20392;-75
2023/01/04 05:40:33;;;;;;;4.72;2.83;;;;;;;-3.31;88.29;100848.34;10503628;28;20049;-76
2023/01/04 05:45:42;;;;;;;4.35;2.22;;;;;;;-3.16;88.33;100853.69;10505776;28;20044;-76
2023/01/04 05:50:44;;;;;;;5.25;2.20;;;;;;;-3.10;87.87;100845.75;10504799;28;20534;-77
2023/01/04 05:55:47;;;;;;;2.90;2.00;;;;;;;-3.21;88.00;100854.25;10504163;28;20048;-76
2023/01/04 06:00:53;;;;;;;3.60;2.30;;;;;;;-3.14;88.21;100847.13;10506856;28;20060;-78
2023/01/04 06:05:59;;;;;;;4.97;3.13;;;;;;;-3.22;88.44;100859.81;10502220;28;20427;-77
2023/01/04 06:11:02;;;;;;;3.90;2.70;;;;;;;-3.03;88.71;100845.81;10504503;28;20052;-76
2023/01/04 06:16:04;;;;;;;4.85;2.90;;;;;;;-3.00;88.47;100845.44;10501708;28;20057;-76
2023/01/04 06:21:10;;;;;;;5.68;3.30;;;;;;;-3.05;88.44;100845.19;10501679;28;20041;-76
2023/01/04 06:26:13;;;;;;;5.78;3.35;;;;;;;-3.02;88.67;100847.47;10501786;28;20044;-76
2023/01/04 06:31:20;;;;;;;4.95;3.10;;;;;;;-3.09;88.77;100851.94;10501783;28;20403;-76
2023/01/04 06:36:24;;;;;;;5.45;3.63;;;;;;;-3.17;89.40;100846.66;10502532;28;20044;-77
2023/01/04 06:41:26;;;;;;;4.13;2.72;;;;;;;-3.19;89.47;100846.84;10500833;28;20814;-76
2023/01/04 06:46:32;;;;;;;5.45;3.33;;;;;;;-3.10;89.32;100852.97;10501947;28;20514;-77
2023/01/04 06:51:35;;;;;;;3.28;2.50;;;;;;;-3.14;89.03;100848.97;10504566;28;20049;-76
2023/01/04 06:56:37;;;;;;;5.15;2.90;;;;;;;-3.11;89.44;100848.63;10500606;28;20052;-76
2023/01/04 07:01:40;;;;;;;3.72;2.13;;;;;;;-3.23;89.19;100853.63;10504944;28;20044;-76
2023/01/04 07:07:07;;;;;;;3.08;1.70;;;;;;;-3.29;89.19;100850.84;10501036;28;20045;-77
2023/01/04 07:12:09;;;;;;;2.47;1.35;;;;;;;-3.37;89.23;100847.22;10500775;28;20048;-76
2023/01/04 07:17:12;;;;;;;2.92;2.10;;;;;;;-3.31;88.81;100856.38;10496873;28;20044;-77
2023/01/04 07:22:15;;;;;;;3.42;2.20;;;;;;;-3.26;88.65;100855.84;10500610;28;20041;-77
2023/01/04 07:27:17;;;;;;;3.50;2.35;;;;;;;-3.23;88.58;100866.22;10502592;28;20049;-76
2023/01/04 07:32:19;;;;;;;4.00;2.80;;;;;;;-3.35;88.54;100863.16;10516921;28;20108;-76
2023/01/04 07:37:21;;;;;;;5.38;3.15;;;;;;;-3.32;88.99;100868.13;10491637;28;20053;-76
2023/01/04 07:42:24;;;;;;;6.68;3.50;;;;;;;-3.39;89.35;100860.00;10520246;28;20423;-77
2023/01/04 07:47:29;;;;;;;5.32;3.45;;;;;;;-3.30;89.05;100859.91;10519422;28;20048;-78
2023/01/04 07:52:32;;;;;;;7.38;3.85;;;;;;;-3.31;88.56;100856.38;10527014;28;20905;-78
2023/01/04 07:57:34;;;;;;;7.25;3.63;;;;;;;-3.37;88.57;100860.66;10526771;28;20048;-78
2023/01/04 08:02:37;;;;;;;3.80;2.70;;;;;;;-3.24;88.74;100853.81;10503279;28;20048;-77
2023/01/04 08:07:39;;;;;;;7.68;3.65;;;;;;;-3.26;88.26;100862.06;10517366;28;20047;-77
2023/01/04 08:12:41;;;;;;;4.45;2.97;;;;;;;-3.41;87.74;100861.22;10525366;28;20622;-77
2023/01/04 08:17:44;;;;;;;5.00;2.90;;;;;;;-3.30;87.56;100862.59;10521562;28;20041;-82
2023/01/04 08:22:46;;;;;;;3.20;1.90;;;;;;;-3.23;87.37;100855.47;10516904;28;20040;-76
2023/01/04 08:27:48;;;;;;;4.15;1.60;;;;;;;-3.40;87.39;100870.94;10521745;28;20047;-78
2023/01/04 08:32:52;;;;;;;4.70;1.83;;;;;;;-3.47;85.96;100872.66;10524124;28;20035;-76
2023/01/04 08:37:54;;;;;;;2.63;1.45;;;;;;;-3.45;86.02;100879.53;10525223;28;20044;-80
2023/01/04 08:42:56;;;;;;;2.67;1.60;;;;;;;-3.29;85.76;100866.97;10526223;28;20052;-79
2023/01/04 08:47:59;;;;;;;2.67;1.67;;;;;;;-3.37;85.31;100865.19;10523863;28;20522;-80
2023/01/04 08:53:01;;;;;;;2.47;1.70;;;;;;;-3.42;84.82;100878.31;10523005;28;20040;-77
2023/01/04 08:58:04;;;;;;;2.45;1.33;;;;;;;-3.58;84.55;100873.13;10521711;28;20521;-80
2023/01/04 09:03:06;;;;;;;3.35;1.80;;;;;;;-3.54;85.29;100879.78;10502744;28;21566;-77
2023/01/04 09:08:08;;;;;;;2.97;1.90;;;;;;;-3.54;85.20;100874.44;10518919;28;20061;-77
2023/01/04 09:13:10;;;;;;;3.20;1.95;;;;;;;-3.69;85.28;100871.72;10510460;28;20040;-83
2023/01/04 09:18:13;;;;;;;3.40;2.30;;;;;;;-3.71;85.64;100881.78;10511828;28;20062;-83
2023/01/04 09:23:15;;;;;;;3.42;2.00;;;;;;;-3.44;86.02;100881.19;10510712;28;20036;-81
2023/01/04 09:28:17;;;;;;;4.50;2.28;;;;;;;-3.17;85.44;100870.81;10499239;28;20041;-82
2023/01/04 09:33:20;;;;;;;2.55;1.88;;;;;;;-3.22;84.17;100865.19;10514874;28;20056;-77
2023/01/04 09:38:22;;;;;;;6.43;2.70;;;;;;;-3.00;84.38;100856.19;10526340;28;20045;-80
2023/01/04 09:43:27;;;;;;;3.38;2.05;;;;;;;-2.85;83.51;100864.22;10521761;28;20053;-80
2023/01/04 09:48:31;;;;;;;2.88;2.08;;;;;;;-3.19;82.33;100859.44;10512092;28;20055;-84
2023/01/04 09:53:42;;;;;;;4.13;2.20;;;;;;;-3.21;82.34;100865.00;10521006;28;20064;-83
2023/01/04 09:58:44;;;;;;;4.00;2.13;;;;;;;-3.06;82.79;100863.13;10522370;28;20033;-83
2023/01/04 10:03:52;;;;;;;2.95;2.00;;;;;;;-3.01;82.93;100859.88;10519591;28;20040;-82
2023/01/04 10:09:00;;;;;;;4.45;2.15;;;;;;;-3.01;83.18;100854.50;10524801;28;20061;-79
2023/01/04 10:14:05;;;;;;;4.50;2.53;;;;;;;-3.02;83.02;100860.91;10497637;28;20041;-78
2023/01/04 10:19:29;;;;;;;5.53;2.38;;;;;;;-2.90;83.27;100855.91;10506986;28;20431;-81
2023/01/04 10:24:53;;;;;;;3.28;2.30;;;;;;;-2.71;82.59;100851.78;10522898;28;20040;-77
2023/01/04 10:30:23;;;;;;;3.38;2.05;;;;;;;-2.75;81.29;100852.16;10529223;28;20052;-78
2023/01/04 10:35:26;;;;;;;5.63;2.40;;;;;;;-3.04;81.57;100866.47;10510165;28;20056;-78
2023/01/04 10:40:33;;;;;;;3.60;2.05;;;;;;;-3.09;82.55;100849.25;10507761;28;20087;-77
2023/01/04 10:45:40;;;;;;;3.78;2.28;;;;;;;-3.19;82.16;100846.03;10529738;28;20067;-78
2023/01/04 10:50:55;;;;;;;4.25;2.40;;;;;;;-3.30;82.88;100849.16;10518386;28;20040;-75
2023/01/04 10:56:08;;;;;;;4.40;2.20;;;;;;;-3.12;83.44;100842.44;10523372;28;20041;-75
2023/01/04 11:01:22;;;;;;;2.67;2.10;;;;;;;-2.98;83.00;100845.25;10522477;28;20032;-75
2023/01/04 11:06:33;;;;;;;3.63;2.22;;;;;;;-2.92;82.52;100848.03;10530296;28;20044;-78
2023/01/04 11:11:41;;;;;;;2.85;1.83;;;;;;;-2.95;82.16;100847.56;10516656;28;20088;-74
2023/01/04 11:16:45;;;;;;;;;;;;;;;-3.17;82.24;100860.09;10527498;28;20052;-76
2023/01/04 11:22:19;;;;;;;4.65;2.00;;;;;;;-3.28;82.14;100857.88;10531749;28;19920;-74
2023/01/04 11:27:28;;;;;;;3.20;1.88;;;;;;;-3.46;83.04;100869.81;10511376;28;20061;-75
2023/01/04 11:33:07;;;;;;;2.65;1.88;;;;;;;-3.53;82.93;100862.69;10499021;28;20499;-75
2023/01/04 11:38:13;;;;;;;2.85;1.70;;;;;;;-3.51;83.22;100858.78;10525351;28;20048;-75
2023/01/04 11:43:19;;;;;;;2.83;1.83;;;;;;;-3.35;82.49;100860.47;10512276;28;20052;-77
2023/01/04 11:48:50;;;;;;;4.03;2.28;;;;;;;-3.55;82.64;100859.34;10498435;28;20723;-73
2023/01/04 11:53:56;;;;;;;3.03;2.10;;;;;;;-3.54;82.37;100859.16;10503952;28;20032;-79
2023/01/04 11:59:05;;;;;;;2.92;1.77;;;;;;;-3.43;82.23;100853.34;10528077;28;20041;-76
2023/01/04 12:04:33;;;;;;;3.40;2.10;;;;;;;-3.49;81.94;100854.06;10521835;28;20040;-77
2023/01/04 12:09:35;;;;;;;3.42;2.35;;;;;;;-3.49;81.98;100846.03;10536145;28;20491;-77
2023/01/04 12:15:07;;;;;;;4.05;2.17;;;;;;;-3.52;82.15;100864.34;10522518;28;21637;-75
2023/01/04 12:20:20;;;;;;;3.50;2.00;;;;;;;-3.63;82.34;100860.28;10523345;28;20659;-78
2023/01/04 12:25:28;;;;;;;3.80;2.30;;;;;;;-3.67;82.83;100858.97;10522357;28;20511;-86
2023/01/04 12:30:45;;;;;;;3.88;2.50;;;;;;;-3.68;82.82;100862.66;10519428;28;20047;-88
2023/01/04 12:35:57;;;;;;;5.53;2.72;;;;;;;-3.47;82.71;100861.94;10518056;28;20052;-79
2023/01/04 12:40:59;;;;;;;4.90;2.80;;;;;;;-3.46;82.38;100866.31;10526070;28;20064;-80
2023/01/04 12:52:07;;;;;;;4.55;3.03;;;;;;;-3.65;83.25;100881.06;10492103;28;20051;-80
2023/01/04 12:57:15;;;;;;;5.40;2.93;;;;;;;-3.80;83.16;100885.59;10523958;28;20155;-78
2023/01/04 13:02:19;;;;;;;;;;;;;;;-3.88;83.02;100878.44;10518109;28;20601;-76
2023/01/04 13:07:29;;;;;;;5.85;2.90;;;;;;;-3.81;83.35;100878.56;10502379;28;19929;-76
2023/01/04 13:12:31;;;;;;;5.22;3.05;;;;;;;-3.72;82.86;100880.13;10505961;28;20055;-79
2023/01/04 13:17:39;;;;;;;4.88;2.72;;;;;;;-3.81;82.12;100881.25;10533825;28;20040;-84
2023/01/04 13:22:47;;;;;;;5.38;3.05;;;;;;;-3.86;81.94;100878.25;10512179;28;20048;-85
2023/01/04 13:27:58;;;;;;;5.70;2.97;;;;;;;-3.75;81.63;100883.19;10496541;28;20676;-87
2023/01/04 13:33:16;;;;;;;7.10;3.22;;;;;;;-3.70;81.01;100886.97;10516927;28;20510;-75
2023/01/04 13:38:19;;;;;;;4.75;2.75;;;;;;;-3.65;80.88;100883.75;10509454;28;20047;-77
2023/01/04 13:43:34;;;;;;;4.53;2.42;;;;;;;-3.90;79.95;100882.31;10519604;28;20051;-85
2023/01/04 13:48:39;;;;;;;4.07;2.70;;;;;;;-3.96;80.24;100882.03;10521750;28;20052;-81
2023/01/04 13:53:51;;;;;;;4.47;2.05;;;;;;;-4.00;80.61;100886.06;10521887;28;20056;-76
2023/01/04 13:58:53;;;;;;;4.82;2.30;;;;;;;-3.92;80.28;100892.38;10545976;28;20522;-77
2023/01/04 14:03:56;;;;;;;5.68;2.22;;;;;;;-4.01;80.51;100884.41;10509114;28;20036;-80
2023/01/04 14:09:03;;;;;;;4.03;1.80;;;;;;;-3.93;80.02;100885.34;10533525;28;20514;-81
2023/01/04 14:14:36;;;;;;;4.72;2.40;;;;;;;-3.91;79.51;100884.16;10525460;28;20499;-77
2023/01/04 14:19:41;;;;;;;3.17;2.03;;;;;;;-4.19;79.19;100883.88;10518601;28;20048;-75
2023/01/04 14:24:43;;;;;;;4.93;2.22;;;;;;;-4.18;79.33;100882.84;10531915;28;20495;-77
2023/01/04 14:29:46;;;;;;;5.20;2.70;;;;;;;-4.10;79.81;100877.44;10530102;28;20048;-76
2023/01/04 14:34:48;;;;;;;5.32;2.45;;;;;;;-4.23;79.36;100879.88;10528679;28;20427;-84
2023/01/04 14:39:50;;;;;;;3.17;2.28;;;;;;;-4.59;79.70;100875.13;10493091;28;20055;-81
2023/01/04 14:44:53;;;;;;;5.38;2.67;;;;;;;-4.89;80.52;100867.91;10529820;28;20044;-78
2023/01/04 14:49:55;;;;;;;4.43;2.65;;;;;;;-4.80;80.55;100872.22;10525417;28;20040;-78
2023/01/04 14:54:58;;;;;;;7.80;4.53;;;;;;;-4.80;81.13;100866.88;10528780;28;20504;-79
2023/01/04 15:00:00;;;;;;;8.55;3.70;;;;;;;-4.91;81.39;100867.25;10530269;28;20048;-79
2023/01/04 15:05:02;;;;;;;7.15;4.22;;;;;;;-5.11;81.01;100866.84;10518102;28;20040;-82
2023/01/04 15:10:17;;;;;;;7.40;4.13;;;;;;;-4.93;82.40;100869.28;10532568;28;20040;-77
2023/01/04 15:15:19;;;;;;;8.23;4.13;;;;;;;-5.61;81.22;100868.00;10527720;28;20063;-80
2023/01/04 15:20:22;;;;;;;7.53;3.80;;;;;;;-6.03;81.51;100876.28;10525188;28;20043;-86
2023/01/04 15:25:25;;;;;;;6.13;3.75;;;;;;;-6.39;81.74;100873.94;10529164;28;20079;-79
2023/01/04 15:30:28;;;;;;;8.48;3.90;;;;;;;-6.57;83.00;100873.25;10530654;28;20044;-82
2023/01/04 15:35:30;;;;;;;9.27;4.72;;;;;;;-6.69;83.31;100866.56;10525406;28;20044;-83
2023/01/04 15:40:34;;;;;;;9.48;4.15;;;;;;;-6.85;83.67;100871.84;10508595;28;20515;-80
2023/01/04 15:45:38;;;;;;;8.20;4.20;;;;;;;-6.98;84.04;100872.31;10509122;28;20040;-79
2023/01/04 15:50:40;;;;;;;8.30;3.97;;;;;;;-7.02;83.71;100870.97;10507551;28;20048;-82
2023/01/04 15:55:43;;;;;;;9.50;4.00;;;;;;;-7.14;84.37;100867.75;10521485;28;20047;-78
2023/01/04 16:00:45;;;;;;;6.30;3.45;;;;;;;-7.26;84.76;100866.38;10522174;28;20024;-78
2023/01/04 16:05:48;;;;;;;7.47;3.72;;;;;;;-7.33;84.74;100865.31;10498651;28;20049;-78
2023/01/04 16:10:50;;;;;;;7.10;4.65;;;;;;;-7.43;84.99;100859.31;10528041;28;20079;-80
2023/01/04 16:15:53;;;;;;;7.70;3.72;;;;;;;-7.51;84.71;100856.56;10516184;28;20045;-79
2023/01/04 16:20:55;;;;;;;6.70;3.92;;;;;;;-7.53;85.48;100855.91;10521289;28;20047;-78
2023/01/04 16:26:04;;;;;;;7.45;4.15;;;;;;;-7.57;85.55;100854.56;10504750;28;20119;-78
2023/01/04 16:31:08;;;;;;;9.10;3.80;;;;;;;-7.66;85.71;100862.50;10526806;28;20036;-79
2023/01/04 16:36:10;;;;;;;7.95;3.97;;;;;;;-7.78;85.90;100869.09;10511757;28;20040;-77
2023/01/04 16:41:14;;;;;;;11.93;5.60;;;;;;;-7.84;85.78;100872.38;10498879;28;20040;-77
2023/01/04 16:46:23;;;;;;;16.83;6.18;;;;;;;-7.94;86.09;100868.97;10521291;28;20047;-76
2023/01/04 16:51:27;;;;;;;10.23;5.07;;;;;;;-7.97;85.57;100862.16;10519997;28;20091;-79
2023/01/04 16:56:30;;;;;;;7.25;3.20;;;;;;;-7.95;85.16;100856.66;10509298;28;20075;-78
2023/01/04 17:01:35;;;;;;;8.45;3.30;;;;;;;-7.88;85.45;100871.00;10527756;28;20127;-79
2023/01/04 17:06:39;;;;;;;4.15;2.00;;;;;;;-7.92;85.16;100861.66;10501725;28;20103;-79
2023/01/04 17:11:55;;;;;;;4.13;2.45;;;;;;;-7.91;85.94;100858.00;10494030;28;20063;-79
2023/01/04 17:16:58;;;;;;;3.67;2.75;;;;;;;-7.94;86.33;100847.69;10514233;28;20041;-78
2023/01/04 17:22:00;;;;;;;3.75;2.40;;;;;;;-7.96;86.47;100836.34;10507142;28;20044;-78
2023/01/04 17:27:03;;;;;;;6.13;2.47;;;;;;;-7.97;86.85;100848.84;10523722;28;20273;-80
2023/01/04 17:32:06;;;;;;;4.82;2.47;;;;;;;-7.96;87.54;100845.19;10495684;28;20063;-82
2023/01/04 17:37:08;;;;;;;5.53;2.72;;;;;;;-8.01;87.34;100841.28;10502563;28;20032;-78
2023/01/04 17:42:10;;;;;;;7.78;2.67;;;;;;;-8.00;87.39;100841.13;10509975;28;20049;-78
2023/01/04 17:47:12;;;;;;;5.35;2.70;;;;;;;-7.97;87.80;100832.03;10512755;28;20136;-78
2023/01/04 17:52:15;;;;;;;5.22;2.58;;;;;;;-7.94;88.63;100829.03;10508306;28;20526;-77
2023/01/04 17:57:17;;;;;;;4.97;2.42;;;;;;;-7.98;88.07;100830.34;10508899;28;20415;-78
2023/01/04 18:02:20;;;;;;;7.15;2.40;;;;;;;-8.12;88.32;100822.94;10514534;28;20036;-79
2023/01/04 18:07:24;;;;;;;6.32;2.83;;;;;;;-8.18;88.47;100808.38;10519396;28;20052;-78
2023/01/04 18:12:29;;;;;;;4.70;2.30;;;;;;;-8.21;88.16;100806.88;10503950;28;20151;-81
2023/01/04 18:17:32;;;;;;;5.85;2.70;;;;;;;-8.20;88.31;100805.06;10509597;28;20045;-80
2023/01/04 18:22:34;;;;;;;6.15;2.65;;;;;;;-8.20;88.56;100811.22;10537834;28;20064;-81
2023/01/04 18:27:37;;;;;;;4.97;2.47;;;;;;;-8.15;88.52;100808.09;10535243;28;20056;-81
2023/01/04 18:32:40;;;;;;;5.80;2.72;;;;;;;-8.15;88.36;100796.63;10515921;28;20502;-80
2023/01/04 18:37:43;;;;;;;3.00;2.15;;;;;;;-8.13;88.83;100795.47;10520173;28;20049;-80
2023/01/04 18:42:47;;;;;;;4.03;2.03;;;;;;;-8.04;88.71;100802.50;10514521;28;20538;-81
2023/01/04 18:47:51;;;;;;;4.13;1.67;;;;;;;-8.08;88.48;100803.81;10528427;28;20068;-76
2023/01/04 18:52:53;;;;;;;5.05;2.15;;;;;;;-8.04;87.79;100807.00;10531368;28;20052;-87
2023/01/04 18:57:55;;;;;;;4.10;2.00;;;;;;;-8.02;88.05;100802.34;10533774;28;20052;-90
2023/01/04 19:02:59;;;;;;;4.97;1.90;;;;;;;-8.04;87.58;100794.50;10532497;28;20052;-82
2023/01/04 19:08:03;;;;;;;2.60;1.58;;;;;;;-8.09;87.72;100803.97;10528557;28;20342;-85
2023/01/04 19:13:05;;;;;;;3.85;2.08;;;;;;;-8.10;87.23;100804.97;10533972;28;20032;-81
2023/01/04 19:18:08;;;;;;;3.95;2.13;;;;;;;-8.17;86.81;100804.72;10528846;28;20039;-78
2023/01/04 19:23:11;;;;;;;4.35;2.30;;;;;;;-8.24;87.45;100803.69;10529699;28;20048;-81
2023/01/04 19:28:13;;;;;;;6.47;2.67;;;;;;;-8.28;86.75;100803.19;10524167;28;20048;-88
2023/01/04 19:33:15;;;;;;;6.78;2.17;;;;;;;-8.27;86.95;100799.53;10512171;28;20052;-84
2023/01/04 19:38:18;;;;;;;2.17;1.48;;;;;;;-8.23;87.22;100795.56;10528328;28;20045;-84
2023/01/04 19:43:20;;;;;;;4.03;2.40;;;;;;;-8.26;87.40;100787.88;10513037;28;20064;-83
2023/01/04 19:48:22;;;;;;;6.10;2.58;;;;;;;-8.23;86.93;100795.56;10524586;28;20048;-87
2023/01/04 19:53:25;;;;;;;3.00;1.60;;;;;;;-8.24;87.11;100783.25;10466592;28;20048;-79
2023/01/04 19:58:27;;;;;;;4.72;2.10;;;;;;;-8.28;86.99;100792.53;10506159;28;20040;-79
2023/01/04 20:03:30;;;;;;;6.15;2.85;;;;;;;-8.33;87.19;100783.31;10529961;28;20457;-78
2023/01/04 20:08:33;;;;;;;5.97;2.20;;;;;;;-8.36;87.10;100787.16;10485962;28;20045;-75
2023/01/04 20:13:35;;;;;;;5.20;2.25;;;;;;;-8.37;87.08;100796.16;10529794;28;20048;-75
2023/01/04 20:18:38;;;;;;;4.30;2.10;;;;;;;-8.36;86.83;100789.84;10535025;28;20039;-77
2023/01/04 20:23:40;;;;;;;7.80;2.80;;;;;;;-8.36;86.73;100789.00;10502236;28;20416;-76
2023/01/04 20:28:44;;;;;;;7.05;2.67;;;;;;;-8.43;86.53;100793.28;10507565;28;20045;-78
2023/01/04 20:33:47;;;;;;;6.55;2.88;;;;;;;-8.51;86.18;100797.53;10491851;28;20040;-79
2023/01/04 20:38:49;;;;;;;5.20;1.70;;;;;;;-8.58;86.39;100801.81;10487375;28;20041;-78
2023/01/04 20:43:51;;;;;;;6.55;2.97;;;;;;;-8.63;86.19;100795.28;10506252;28;20503;-80
2023/01/04 20:48:54;;;;;;;6.07;3.28;;;;;;;-8.75;86.69;100788.53;10522470;28;20079;-78
2023/01/04 20:54:00;;;;;;;5.22;2.65;;;;;;;-8.86;86.14;100787.75;10485076;28;20139;-78
2023/01/04 20:59:07;;;;;;;7.40;3.10;;;;;;;-8.88;86.20;100781.75;10496944;28;20075;-78
2023/01/04 21:04:09;;;;;;;5.57;2.45;;;;;;;-8.89;86.53;100772.09;10513062;28;20052;-78
2023/01/04 21:09:11;;;;;;;8.07;3.50;;;;;;;-8.94;86.12;100792.16;10495745;28;20048;-85
2023/01/04 21:14:14;;;;;;;5.65;3.22;;;;;;;-9.00;86.19;100792.78;10487431;28;20052;-86
2023/01/04 21:19:16;;;;;;;7.28;3.55;;;;;;;-9.05;85.87;100784.41;10499942;28;20051;-86
2023/01/04 21:24:18;;;;;;;8.32;3.50;;;;;;;-9.07;86.47;100789.03;10490082;28;20045;-85
2023/01/04 21:29:20;;;;;;;7.90;4.47;;;;;;;-9.13;86.02;100793.97;10506826;28;20041;-84
2023/01/04 21:34:22;;;;;;;9.68;4.57;;;;;;;-9.19;86.18;100796.41;10520690;28;20033;-83
2023/01/04 21:39:25;;;;;;;8.43;3.50;;;;;;;-9.25;85.88;100784.53;10488020;28;20045;-85
2023/01/04 21:44:27;;;;;;;7.00;3.65;;;;;;;-9.24;85.64;100798.66;10485568;28;20053;-84
2023/01/04 21:49:32;;;;;;;8.43;4.10;;;;;;;-9.32;86.03;100791.44;10485762;28;20045;-84
2023/01/04 21:54:36;;;;;;;7.53;4.10;;;;;;;-9.37;86.42;100787.53;10513414;28;20135;-84
2023/01/04 21:59:38;;;;;;;8.48;4.85;;;;;;;-9.39;86.28;100781.53;10526051;28;20037;-84
2023/01/04 22:04:41;;;;;;;10.55;4.88;;;;;;;-9.50;86.65;100775.47;10520620;28;20041;-83
2023/01/04 22:09:43;;;;;;;11.40;5.45;;;;;;;-9.57;86.30;100777.03;10524962;28;20490;-83
2023/01/04 22:14:45;;;;;;;9.65;5.00;;;;;;;-9.63;86.38;100767.00;10494696;28;20055;-83
2023/01/04 22:19:47;;;;;;;10.20;4.72;;;;;;;-9.62;86.00;100766.03;10501689;28;20423;-84
2023/01/04 22:24:50;;;;;;;9.38;4.40;;;;;;;-9.57;86.17;100761.09;10514069;28;20546;-85
2023/01/04 22:29:52;;;;;;;7.40;3.75;;;;;;;-9.51;86.77;100749.06;10533532;28;20048;-83
2023/01/04 22:34:55;;;;;;;7.65;3.88;;;;;;;-9.44;86.81;100747.47;10533839;28;20040;-86
2023/01/04 22:39:57;;;;;;;7.18;3.83;;;;;;;-9.38;86.54;100746.84;10494060;28;20044;-85
2023/01/04 22:44:59;;;;;;;6.70;3.40;;;;;;;-9.30;86.45;100746.97;10499733;28;20518;-85
2023/01/04 22:50:04;;;;;;;7.85;3.47;;;;;;;-9.22;86.49;100751.50;10533607;28;20048;-85
2023/01/04 22:55:08;;;;;;;8.43;3.78;;;;;;;-9.16;86.83;100748.28;10521977;28;20142;-85
2023/01/04 23:00:11;;;;;;;8.65;3.38;;;;;;;-9.16;86.61;100740.28;10515481;28;20506;-85
2023/01/04 23:05:13;;;;;;;9.98;3.90;;;;;;;-9.11;86.66;100745.97;10500588;28;20066;-85
2023/01/04 23:10:15;;;;;;;10.38;4.13;;;;;;;-9.13;85.92;100729.34;10511347;28;20052;-76
2023/01/04 23:15:17;;;;;;;5.65;3.53;;;;;;;-9.12;86.34;100734.53;10519688;28;20036;-75
2023/01/04 23:20:20;;;;;;;9.80;3.88;;;;;;;-9.07;86.24;100749.16;10516003;28;20045;-76
2023/01/04 23:25:22;;;;;;;7.65;3.95;;;;;;;-9.06;86.90;100725.09;10521516;28;20044;-76
2023/01/04 23:30:25;;;;;;;9.60;4.10;;;;;;;-8.94;87.10;100729.19;10493529;28;20044;-76
2023/01/04 23:35:27;;;;;;;6.03;3.55;;;;;;;-8.85;86.50;100722.09;10522772;28;20044;-78
2023/01/04 23:40:30;;;;;;;7.05;3.88;;;;;;;-8.84;87.14;100715.84;10512355;28;20499;-77
2023/01/04 23:45:32;;;;;;;7.15;3.70;;;;;;;-8.79;87.22;100713.53;10511771;28;20052;-75
2023/01/04 23:50:34;;;;;;;6.25;3.00;;;;;;;-8.77;87.34;100724.84;10529259;28;20442;-75
2023/01/04 23:55:36;;;;;;;8.40;3.03;;;;;;;-8.73;87.54;100702.28;10513595;28;20044;-75
